This is the latest recevied weather packets stored in our database for station/object HK4D-13. If no packets are shown the sender has not sent any weather packets the latest 10 day(s).
| Time | Temp. | Humidity | Pressure | Rain* | Wind** | Luminosity | Snow |
|---|---|---|---|---|---|---|---|
| 1778112296 | 16.67° C | 60% | 1015 hPa | 0 mm | - | - | - |
| 1778111694 | 18.33° C | 51% | 1015 hPa | 0 mm | - | - | - |
| 1778111093 | 18.33° C | 51% | 1014 hPa | 0 mm | - | - | - |
| 1778110491 | 18.33° C | 51% | 1014 hPa | 0 mm | - | - | - |
| 1778109890 | 18.33° C | 51% | 1013 hPa | 0 mm | - | - | - |
| 1778109289 | 18.33° C | 51% | 1013 hPa | 0 mm | - | - | - |
| 1778108689 | 18.89° C | 48% | 1013 hPa | 0 mm | - | - | - |
| 1778108087 | 19.44° C | 48% | 1013 hPa | 0 mm | - | - | - |
| 1778107487 | 20.56° C | 49% | 1013 hPa | 0 mm | - | - | - |
| 1778106886 | 20° C | 47% | 1013 hPa | 0 mm | - | - | - |
| 1778106287 | 20° C | 47% | 1011 hPa | 0 mm | - | - | - |
| 1778105685 | 19.44° C | 46% | 1011 hPa | 0 mm | - | - | - |
| 1778105084 | 21.67° C | 44% | 1011 hPa | 0 mm | - | - | - |
| 1778104483 | 21.67° C | 44% | 1011 hPa | 0 mm | - | - | - |
| 1778103883 | 21.67° C | 44% | 1011 hPa | 0 mm | - | - | - |
| 1778103282 | 22.78° C | 45% | 1011 hPa | 0 mm | - | - | - |
| 1778102680 | 22.78° C | 45% | 1010 hPa | 0 mm | - | - | - |
| 1778102080 | 22.78° C | 45% | 1010 hPa | 0 mm | - | - | - |
| 1778101479 | 22.78° C | 45% | 1010 hPa | 0 mm | - | - | - |
| 1778100879 | 22.78° C | 45% | 1010 hPa | 0 mm | - | - | - |
| 1778100278 | 22.78° C | 46% | 1010 hPa | 0 mm | - | - | - |
| 1778099678 | 22.22° C | 48% | 1010 hPa | 0 mm | - | - | - |
| 1778099075 | 22.22° C | 49% | 1010 hPa | 0 mm | - | - | - |
| 1778098473 | 22.22° C | 52% | 1010 hPa | 0 mm | - | - | - |
| 1778097872 | 21.67° C | 55% | 1010 hPa | 0 mm | - | - | - |
* Rain latest hour (hover to see other rain measurements)
** Current wind speed in m/s (hover to see current wind gust speed)